Decoded Metar for LEAS (ASTURIAS in SPAIN) (IATA:OVD) | Meteo·Mobile Aviation Weather
aviador You're here:

LEAS Decoded Metar

ASTURIAS in SPAIN
Report Time2018-09-18 15:00:00
UTC Time2018-09-18 15:10:36
Flight Rules vfr VFR
Wind320° at 04 kt
W.Decomp.*RWY 29: 3.4 kt HW 2.2 kt RCW
W.Rank320° ranks 15
Current wind is below 320° avg. (6.0)
Visibility9999 m
Phenomena:N/A
Clouds:Few 026 Hf
Expected CloudBase > 1,600 ft AGL from Temp-Dew spread
CeilingNone
Temp21°C (ISA +7)
Dew Point17°C (78% RH)
QNH1018 hPa
Density Alt1,332 ft
Elevation440 ft
Report Wrong Elevation
Raw Report
METAR LEAS 181500Z 32004KT 280V050 9999 FEW026 21/17 Q1018 NOSIG=

Extra information for LEAS:More info

Metar Taf Metar & Taf Last 4 Metars F.Rules Stats Wind Profile Meteogram Temp Stats Airport Information Weather charts Add Link Nearby VenuesMetar ALERT Operation Metar Decoded Social comments